Time;durP1;ratioP1;P1;durP2;ratioP2;P2;SDS_P1;SDS_P2;PMS_P1;PMS_P2;Temp;Humidity;BMP_temperature;BMP_pressure;BME280_temperature;BME280_humidity;BME280_pressure;Samples;Min_cycle;Max_cycle;Signal;HPM_P1;HPM_P2
2023/05/03 00:00:26;;;;;;;6.63;2.40;;;6.50;99.90;;;;;;4948434;28;38728;-79
2023/05/03 00:02:56;;;;;;;4.50;2.07;;;6.50;99.90;;;;;;4951860;28;39900;-78
2023/05/03 00:05:26;;;;;;;3.77;1.97;;;6.50;99.90;;;;;;4951137;28;37800;-79
2023/05/03 00:07:53;;;;;;;6.77;2.50;;;6.50;99.90;;;;;;4943975;28;37635;-78
2023/05/03 00:10:22;;;;;;;3.60;2.07;;;6.50;99.90;;;;;;4957402;28;38597;-79
2023/05/03 00:12:50;;;;;;;7.70;2.33;;;6.50;99.90;;;;;;4933439;28;39126;-79
2023/05/03 00:15:17;;;;;;;4.63;2.27;;;6.60;99.90;;;;;;4948877;28;38983;-79
2023/05/03 00:17:43;;;;;;;4.97;2.33;;;6.50;99.90;;;;;;4946360;28;36636;-79
2023/05/03 00:20:11;;;;;;;5.57;2.27;;;6.50;99.90;;;;;;4940356;29;38569;-79
2023/05/03 00:22:42;;;;;;;5.13;2.57;;;6.50;99.90;;;;;;4942043;28;38839;-79
2023/05/03 00:25:25;;;;;;;4.20;2.23;;;6.50;99.90;;;;;;4942012;29;37370;-79
2023/05/03 00:27:55;;;;;;;4.57;2.70;;;6.50;99.90;;;;;;4961691;28;38414;-79
2023/05/03 00:30:21;;;;;;;9.97;2.63;;;6.40;99.90;;;;;;4950455;28;38855;-78
2023/05/03 00:32:50;;;;;;;4.27;2.20;;;6.40;99.90;;;;;;4969279;28;38518;-79
2023/05/03 00:35:17;;;;;;;5.33;2.50;;;6.40;99.90;;;;;;4930905;28;37665;-78
2023/05/03 00:37:43;;;;;;;4.17;2.37;;;6.40;99.90;;;;;;4939330;29;38636;-78
2023/05/03 00:40:12;;;;;;;4.80;2.20;;;6.40;99.90;;;;;;4950306;28;41467;-79
2023/05/03 00:42:38;;;;;;;3.67;2.33;;;6.30;99.90;;;;;;4951222;29;38524;-77
2023/05/03 00:45:09;;;;;;;5.43;2.53;;;6.30;99.90;;;;;;4953905;28;38085;-78
2023/05/03 00:47:36;;;;;;;3.60;2.27;;;6.20;99.90;;;;;;4941394;29;48113;-78
2023/05/03 00:50:03;;;;;;;5.83;2.73;;;6.20;99.90;;;;;;4967196;28;37356;-78
2023/05/03 00:52:30;;;;;;;6.13;2.77;;;6.20;99.90;;;;;;4941863;28;48453;-78
2023/05/03 00:54:56;;;;;;;5.50;2.43;;;6.20;99.90;;;;;;4945616;28;37105;-78
2023/05/03 00:57:26;;;;;;;3.77;2.50;;;6.20;99.90;;;;;;4941999;28;35933;-78
2023/05/03 00:59:52;;;;;;;6.77;2.70;;;6.20;99.90;;;;;;4954003;28;40114;-78
2023/05/03 01:02:19;;;;;;;7.23;2.53;;;6.20;99.90;;;;;;5364580;23;40155;-80
2023/05/03 01:04:54;;;;;;;4.03;2.37;;;6.10;99.90;;;;;;4967507;28;39142;-80
2023/05/03 01:07:37;;;;;;;6.87;2.80;;;6.00;99.90;;;;;;4970534;28;38410;-79
2023/05/03 01:10:18;;;;;;;6.40;2.93;;;6.00;99.90;;;;;;4970303;28;40207;-79
2023/05/03 01:12:54;;;;;;;8.37;2.70;;;6.00;99.90;;;;;;4977721;28;40487;-79
2023/05/03 01:15:56;;;;;;;6.50;2.77;;;5.90;99.90;;;;;;4977823;28;39408;-80
2023/05/03 01:18:31;;;;;;;5.90;2.90;;;5.90;99.90;;;;;;4978515;28;37315;-78
2023/05/03 01:21:05;;;;;;;3.73;2.80;;;5.80;99.90;;;;;;4978737;28;39046;-78
2023/05/03 01:24:09;;;;;;;6.63;3.50;;;5.80;99.90;;;;;;4973626;28;48273;-79
2023/05/03 01:26:53;;;;;;;5.83;3.20;;;5.70;99.90;;;;;;4978440;28;48615;-80
2023/05/03 01:29:28;;;;;;;8.37;3.13;;;5.70;99.90;;;;;;4980292;28;36918;-80
2023/05/03 01:32:05;;;;;;;5.77;3.43;;;5.60;99.90;;;;;;4979616;28;38829;-80
2023/05/03 01:35:02;;;;;;;9.17;3.23;;;5.60;99.90;;;;;;4959713;28;47582;-79
2023/05/03 01:37:29;;;;;;;6.27;3.00;;;5.60;99.90;;;;;;4975777;28;37850;-78
2023/05/03 01:40:30;;;;;;;5.67;3.03;;;5.60;99.90;;;;;;4976052;28;37329;-79
2023/05/03 01:42:59;;;;;;;4.43;2.90;;;5.60;99.90;;;;;;4973585;28;47978;-78
2023/05/03 01:45:34;;;;;;;6.87;3.30;;;5.60;99.90;;;;;;4959971;28;39970;-79
2023/05/03 01:48:12;;;;;;;5.13;3.20;;;5.60;99.90;;;;;;4971560;28;39351;-79
2023/05/03 01:50:44;;;;;;;5.93;3.37;;;5.60;99.90;;;;;;4958915;28;48478;-80
2023/05/03 01:53:13;;;;;;;4.57;2.90;;;5.60;99.90;;;;;;4966470;28;39023;-80
2023/05/03 01:55:45;;;;;;;6.77;3.07;;;5.60;99.90;;;;;;4971051;28;38295;-80
2023/05/03 01:58:11;;;;;;;6.82;3.35;;;5.70;99.90;;;;;;4976553;28;38022;-79
2023/05/03 02:00:37;;;;;;;9.53;3.67;;;5.70;99.90;;;;;;4967177;28;37244;-79
2023/05/03 02:03:09;;;;;;;11.87;5.43;;;5.60;99.90;;;;;;4963159;28;40133;-79
2023/05/03 02:05:35;;;;;;;6.28;3.60;;;5.60;99.90;;;;;;4971743;28;38441;-79
2023/05/03 02:08:02;;;;;;;5.80;3.50;;;5.70;99.90;;;;;;4962775;28;38073;-79
2023/05/03 02:10:29;;;;;;;9.70;3.80;;;5.80;99.90;;;;;;4959476;28;37050;-81
2023/05/03 02:13:02;;;;;;;10.53;3.60;;;5.90;99.90;;;;;;4974828;28;38395;-79
2023/05/03 02:15:28;;;;;;;7.60;3.27;;;5.90;99.90;;;;;;4964467;28;50209;-79
2023/05/03 02:18:07;;;;;;;8.13;3.73;;;5.90;99.90;;;;;;4968708;28;37845;-79
2023/05/03 02:20:36;;;;;;;7.50;3.23;;;6.00;99.90;;;;;;4958048;28;48249;-79
2023/05/03 02:23:03;;;;;;;8.20;3.13;;;5.90;99.90;;;;;;4981635;28;38650;-79
2023/05/03 02:25:35;;;;;;;7.37;3.03;;;5.90;99.90;;;;;;4960123;28;39264;-79
2023/05/03 02:28:07;;;;;;;6.95;3.40;;;5.80;99.90;;;;;;4966498;28;37859;-80
2023/05/03 02:30:34;;;;;;;8.40;3.20;;;5.80;99.90;;;;;;4970498;28;36292;-80
2023/05/03 02:33:06;;;;;;;6.60;3.20;;;5.80;99.90;;;;;;4975372;28;37950;-80
2023/05/03 02:35:33;;;;;;;6.03;2.95;;;5.70;99.90;;;;;;4972879;28;48193;-80
2023/05/03 02:37:59;;;;;;;7.73;4.17;;;5.70;99.90;;;;;;5162231;23;39456;-78
2023/05/03 02:40:32;;;;;;;12.10;3.10;;;5.70;99.90;;;;;;4938550;28;37065;-79
2023/05/03 02:43:01;;;;;;;6.43;2.90;;;5.70;99.90;;;;;;4943592;28;40112;-80
2023/05/03 02:45:46;;;;;;;3.97;3.07;;;5.70;99.90;;;;;;4951003;28;49851;-80
2023/05/03 02:48:15;;;;;;;12.53;4.17;;;5.60;99.90;;;;;;4956778;28;38019;-79
2023/05/03 02:50:41;;;;;;;12.83;3.50;;;5.60;99.90;;;;;;4939430;29;37047;-79
2023/05/03 02:53:08;;;;;;;7.67;3.30;;;5.60;99.90;;;;;;4955090;28;40294;-79
2023/05/03 02:55:35;;;;;;;5.67;3.23;;;5.50;99.90;;;;;;4955040;28;37189;-79
2023/05/03 02:58:02;;;;;;;8.17;3.67;;;5.50;99.90;;;;;;4939490;29;37817;-79
2023/05/03 03:00:29;;;;;;;9.27;4.30;;;5.50;99.90;;;;;;4953146;28;38655;-79
2023/05/03 03:02:58;;;;;;;7.00;3.60;;;5.40;99.90;;;;;;4950608;28;39111;-79
2023/05/03 03:05:25;;;;;;;8.37;3.27;;;5.40;99.90;;;;;;4943797;29;37793;-79
2023/05/03 03:07:51;;;;;;;6.43;3.37;;;5.40;99.90;;;;;;4947357;28;38039;-79
2023/05/03 03:10:18;;;;;;;6.37;3.63;;;5.40;99.90;;;;;;4934489;28;36460;-79
2023/05/03 03:12:44;;;;;;;7.70;3.83;;;5.40;99.90;;;;;;4949308;28;38990;-80
2023/05/03 03:15:10;;;;;;;9.27;3.80;;;5.40;99.90;;;;;;4941046;28;38953;-80
2023/05/03 03:17:40;;;;;;;7.47;3.50;;;5.30;99.90;;;;;;4943900;28;39460;-80
2023/05/03 03:20:28;;;;;;;6.67;3.50;;;5.20;99.90;;;;;;4940315;28;37264;-79
2023/05/03 03:23:07;;;;;;;9.70;3.40;;;5.20;99.90;;;;;;4960615;28;38828;-80
2023/05/03 03:25:42;;;;;;;7.90;3.93;;;5.10;99.90;;;;;;4961188;28;50115;-80
2023/05/03 03:28:28;;;;;;;10.13;3.63;;;5.10;99.90;;;;;;4948294;28;37821;-80
2023/05/03 03:34:48;;;;;;;8.20;3.60;;;5.00;99.90;;;;;;4942975;28;50399;-79
2023/05/03 03:37:14;;;;;;;6.60;3.10;;;5.10;99.90;;;;;;5251922;23;39834;-79
2023/05/03 03:39:42;;;;;;;6.67;3.73;;;5.00;99.90;;;;;;4953988;28;37375;-80
2023/05/03 03:42:43;;;;;;;9.03;3.60;;;5.00;99.90;;;;;;4951813;28;36074;-79
2023/05/03 03:45:09;;;;;;;9.07;3.60;;;4.90;99.90;;;;;;4970178;28;39545;-80
2023/05/03 03:47:40;;;;;;;7.23;4.03;;;4.90;99.90;;;;;;4957259;28;38727;-80
2023/05/03 03:50:18;;;;;;;8.50;4.10;;;4.80;99.90;;;;;;4955284;28;37892;-80
2023/05/03 03:52:44;;;;;;;8.50;3.87;;;4.80;99.90;;;;;;4969046;28;38705;-79
2023/05/03 03:55:10;;;;;;;7.73;3.90;;;4.80;99.90;;;;;;4962332;28;38889;-80
2023/05/03 03:57:40;;;;;;;8.00;3.80;;;4.80;99.90;;;;;;4955787;28;38081;-79
2023/05/03 04:00:22;;;;;;;10.37;4.53;;;4.70;99.90;;;;;;4959493;28;36816;-80
2023/05/03 04:02:55;;;;;;;5.67;3.47;;;4.70;99.90;;;;;;4963775;28;38107;-80
2023/05/03 04:05:21;;;;;;;9.50;3.53;;;4.70;99.90;;;;;;4963001;28;38670;-79
2023/05/03 04:07:47;;;;;;;7.77;4.37;;;4.60;99.90;;;;;;4978074;28;39874;-79
2023/05/03 04:10:15;;;;;;;8.40;4.37;;;4.60;99.90;;;;;;4950329;28;37987;-80
2023/05/03 04:12:41;;;;;;;6.60;3.63;;;4.60;99.90;;;;;;4958212;28;37176;-79
2023/05/03 04:15:10;;;;;;;8.03;4.17;;;4.60;99.90;;;;;;4963197;28;38957;-79
2023/05/03 04:17:37;;;;;;;5.83;3.70;;;4.60;99.90;;;;;;4951499;28;38595;-79
2023/05/03 04:20:12;;;;;;;11.80;4.53;;;4.60;99.90;;;;;;4959760;28;37963;-79
2023/05/03 04:22:39;;;;;;;5.20;3.53;;;4.60;99.90;;;;;;4937827;28;48028;-78
2023/05/03 04:25:07;;;;;;;11.27;4.10;;;4.60;99.90;;;;;;4941168;28;38175;-78
2023/05/03 04:27:34;;;;;;;7.93;3.83;;;4.60;99.90;;;;;;4954128;28;38826;-78
2023/05/03 04:30:00;;;;;;;7.43;4.13;;;4.60;99.90;;;;;;4937062;28;38727;-79
2023/05/03 04:32:36;;;;;;;7.40;3.80;;;4.60;99.90;;;;;;4957164;28;36374;-80
2023/05/03 04:35:11;;;;;;;9.63;4.10;;;4.70;99.90;;;;;;4969454;28;39310;-79
2023/05/03 04:37:38;;;;;;;7.70;4.37;;;4.70;99.90;;;;;;4939295;28;48511;-79
2023/05/03 04:40:07;;;;;;;10.23;4.57;;;4.70;99.90;;;;;;4958438;28;38552;-77
2023/05/03 04:42:34;;;;;;;11.57;4.53;;;4.80;99.90;;;;;;4950523;28;49173;-78
2023/05/03 04:45:02;;;;;;;9.53;4.43;;;4.80;99.90;;;;;;4963056;28;39148;-78
2023/05/03 04:47:28;;;;;;;12.33;4.63;;;4.80;99.90;;;;;;4956914;28;38440;-79
2023/05/03 04:49:54;;;;;;;6.57;3.73;;;4.90;99.90;;;;;;4964043;28;39133;-79
2023/05/03 04:52:21;;;;;;;8.60;4.13;;;5.00;99.90;;;;;;4975798;28;38662;-79
2023/05/03 04:54:50;;;;;;;10.00;3.90;;;5.10;99.90;;;;;;4974363;28;40265;-79
2023/05/03 04:57:16;;;;;;;7.83;3.93;;;5.10;99.90;;;;;;4935146;28;37808;-78
2023/05/03 04:59:42;;;;;;;8.43;3.90;;;5.20;99.90;;;;;;4940462;28;37228;-78
2023/05/03 05:02:09;;;;;;;9.53;4.00;;;5.20;99.90;;;;;;4940630;28;36372;-77
2023/05/03 05:04:35;;;;;;;9.93;3.70;;;5.30;99.90;;;;;;4949368;28;40065;-78
2023/05/03 05:07:01;;;;;;;6.13;3.67;;;5.40;99.90;;;;;;4942808;28;42012;-77
2023/05/03 05:09:30;;;;;;;10.77;3.57;;;5.40;99.90;;;;;;4958372;28;49002;-77
2023/05/03 05:11:56;;;;;;;9.57;3.80;;;5.50;99.90;;;;;;4953180;28;37478;-77
2023/05/03 05:14:22;;;;;;;5.93;3.20;;;5.50;99.90;;;;;;4933140;28;39350;-76
2023/05/03 05:16:48;;;;;;;10.43;3.37;;;5.60;99.90;;;;;;4928952;28;37603;-75
2023/05/03 05:19:15;;;;;;;7.50;2.90;;;5.60;99.90;;;;;;4925102;28;37109;-76
2023/05/03 05:21:41;;;;;;;8.97;3.17;;;5.70;99.90;;;;;;4922863;28;36119;-76
2023/05/03 05:24:07;;;;;;;8.77;3.13;;;5.80;99.90;;;;;;4946603;28;38122;-77
2023/05/03 05:26:33;;;;;;;6.50;2.67;;;5.90;99.90;;;;;;4957956;28;38346;-80
2023/05/03 05:28:59;;;;;;;7.00;3.00;;;6.00;99.90;;;;;;4938461;28;38065;-77
2023/05/03 05:31:25;;;;;;;10.17;2.87;;;6.10;99.90;;;;;;5011624;23;37426;-76
2023/05/03 05:33:52;;;;;;;9.43;2.63;;;6.10;99.90;;;;;;4902961;29;38549;-79
2023/05/03 05:36:18;;;;;;;9.13;2.30;;;6.20;99.90;;;;;;4904149;28;38409;-78
2023/05/03 05:38:44;;;;;;;6.43;2.60;;;6.30;99.90;;;;;;4913330;29;38278;-79
2023/05/03 05:41:10;;;;;;;9.30;2.63;;;6.40;99.90;;;;;;4908634;29;36900;-79
2023/05/03 05:43:37;;;;;;;6.23;2.67;;;6.40;99.90;;;;;;4920746;29;39392;-78
2023/05/03 05:46:03;;;;;;;6.97;2.20;;;6.50;99.90;;;;;;4919212;29;38954;-78
2023/05/03 05:48:29;;;;;;;5.40;2.60;;;6.50;99.90;;;;;;4926053;28;37176;-78
2023/05/03 05:50:55;;;;;;;5.37;2.30;;;6.60;99.90;;;;;;4917409;29;35906;-79
2023/05/03 05:53:22;;;;;;;4.57;2.30;;;6.70;99.90;;;;;;4916729;28;37804;-79
2023/05/03 05:55:48;;;;;;;7.43;2.13;;;6.80;99.90;;;;;;4903002;29;39105;-78
2023/05/03 05:58:14;;;;;;;7.37;2.27;;;6.80;99.90;;;;;;4905216;29;39279;-78
2023/05/03 06:01:09;;;;;;;6.83;2.10;;;6.80;99.90;;;;;;4933596;28;37129;-82
2023/05/03 06:06:11;;;;;;;3.13;2.07;;;7.00;99.90;;;;;;5977683;23;20033;-80
2023/05/03 06:08:37;;;;;;;8.47;2.33;;;7.00;99.90;;;;;;4939113;28;39622;-81
2023/05/03 06:11:04;;;;;;;9.27;2.60;;;7.10;99.90;;;;;;4932653;28;37185;-80
2023/05/03 06:13:32;;;;;;;4.87;2.23;;;7.10;99.90;;;;;;4936329;29;40458;-79
2023/05/03 06:23:46;;;;;;;5.30;1.80;;;7.50;99.90;;;;;;5924432;23;20003;-81
2023/05/03 06:26:52;;;;;;;3.93;2.00;;;7.50;99.90;;;;;;4935239;28;38554;-80
2023/05/03 06:29:18;;;;;;;8.03;2.23;;;7.70;99.90;;;;;;4928109;28;37608;-77
2023/05/03 06:31:44;;;;;;;7.70;2.30;;;7.70;99.90;;;;;;4906865;28;36453;-79
2023/05/03 06:34:10;;;;;;;9.63;2.27;;;7.80;99.90;;;;;;4900186;29;37782;-79
2023/05/03 06:36:37;;;;;;;6.77;2.30;;;7.90;99.90;;;;;;4897906;29;20045;-78
2023/05/03 06:39:03;;;;;;;9.87;2.30;;;8.10;99.90;;;;;;4900644;29;38800;-78
2023/05/03 06:41:32;;;;;;;3.53;1.80;;;8.20;99.90;;;;;;4897297;29;37778;-79
2023/05/03 06:43:58;;;;;;;5.53;2.23;;;8.30;99.90;;;;;;4894677;29;38977;-78
2023/05/03 06:46:27;;;;;;;5.90;2.10;;;8.30;99.90;;;;;;4899563;29;37397;-79
2023/05/03 06:48:55;;;;;;;7.30;1.80;;;8.60;99.90;;;;;;4903461;29;37881;-79
2023/05/03 06:51:27;;;;;;;6.50;2.60;;;8.70;99.90;;;;;;4891815;29;37845;-79
2023/05/03 06:53:55;;;;;;;8.10;2.00;;;8.90;99.90;;;;;;4892435;29;38167;-79
2023/05/03 06:56:22;;;;;;;7.07;2.60;;;8.90;99.90;;;;;;4898309;29;37517;-79
2023/05/03 06:58:48;;;;;;;6.20;1.60;;;9.20;99.90;;;;;;4892895;28;38590;-78
2023/05/03 07:01:16;;;;;;;7.43;1.63;;;9.40;99.90;;;;;;4897694;28;36760;-78
2023/05/03 07:03:42;;;;;;;5.90;1.60;;;9.40;99.90;;;;;;4900162;29;39277;-79
2023/05/03 07:06:08;;;;;;;6.23;1.43;;;9.30;99.90;;;;;;4890773;28;37320;-79
2023/05/03 07:08:34;;;;;;;9.27;1.77;;;9.40;99.90;;;;;;4894754;29;36739;-80
2023/05/03 07:11:00;;;;;;;6.32;1.70;;;9.60;99.90;;;;;;4895319;29;36050;-81
2023/05/03 07:13:26;;;;;;;8.53;1.80;;;9.40;99.90;;;;;;4899154;29;37278;-79
2023/05/03 07:15:52;;;;;;;5.37;2.20;;;9.40;99.90;;;;;;4899388;29;37298;-80
2023/05/03 07:18:18;;;;;;;3.60;1.50;;;9.40;99.90;;;;;;4897082;28;38168;-79
2023/05/03 07:20:45;;;;;;;7.10;1.77;;;9.60;99.90;;;;;;4896885;29;36224;-80
2023/05/03 07:23:11;;;;;;;6.43;1.63;;;9.90;99.90;;;;;;4899067;29;40537;-79
2023/05/03 07:25:40;;;;;;;4.77;1.30;;;10.00;99.90;;;;;;4895620;29;37294;-79
2023/05/03 07:28:06;;;;;;;5.10;1.92;;;10.10;99.90;;;;;;4897450;29;37288;-79
2023/05/03 07:30:32;;;;;;;5.82;1.42;;;10.50;99.90;;;;;;4888463;29;37799;-78
2023/05/03 07:32:58;;;;;;;3.53;1.40;;;10.40;99.90;;;;;;4901143;29;37631;-77
2023/05/03 07:35:26;;;;;;;5.60;1.45;;;10.10;99.90;;;;;;4902759;29;37024;-77
2023/05/03 07:37:52;;;;;;;8.15;1.95;;;10.20;99.90;;;;;;4901857;29;37088;-78
2023/05/03 07:40:18;;;;;;;5.72;1.27;;;10.20;99.90;;;;;;4897275;29;37234;-78
2023/05/03 07:42:45;;;;;;;5.28;1.80;;;10.30;99.90;;;;;;4884815;29;37656;-78
2023/05/03 07:45:11;;;;;;;6.97;1.80;;;10.40;99.90;;;;;;4887552;29;37656;-77
2023/05/03 07:47:38;;;;;;;10.40;2.03;;;10.60;99.90;;;;;;4887370;29;37506;-77
2023/05/03 07:50:05;;;;;;;7.03;1.48;;;10.60;99.90;;;;;;4892440;29;36460;-76
2023/05/03 07:52:36;;;;;;;6.15;1.70;;;10.60;99.90;;;;;;4889898;29;46826;-76
2023/05/03 07:55:02;;;;;;;5.75;1.70;;;10.70;99.90;;;;;;4889081;29;37183;-78
2023/05/03 07:57:32;;;;;;;10.35;2.00;;;10.70;99.90;;;;;;4888943;29;38575;-80
2023/05/03 07:59:58;;;;;;;4.15;1.50;;;10.80;99.90;;;;;;4921042;28;35348;-81
2023/05/03 08:02:25;;;;;;;4.30;1.65;;;10.80;99.90;;;;;;4905442;29;37123;-78
2023/05/03 08:04:51;;;;;;;5.95;1.42;;;11.00;99.90;;;;;;4889863;29;38011;-78
2023/05/03 08:07:17;;;;;;;6.57;1.48;;;11.10;99.90;;;;;;4893353;28;38053;-77
2023/05/03 08:09:43;;;;;;;6.22;1.50;;;11.30;99.90;;;;;;4889692;29;37464;-79
2023/05/03 08:12:09;;;;;;;6.25;1.33;;;11.70;99.90;;;;;;4901463;28;37713;-79
2023/05/03 08:14:36;;;;;;;5.32;1.20;;;11.80;99.90;;;;;;4900030;29;37049;-79
2023/05/03 08:17:05;;;;;;;5.38;1.83;;;11.90;99.90;;;;;;4896620;29;37935;-78
2023/05/03 08:19:31;;;;;;;4.35;1.50;;;11.90;99.90;;;;;;4902538;29;36486;-76
2023/05/03 08:21:58;;;;;;;6.35;1.52;;;12.10;99.90;;;;;;4900613;29;38965;-77
2023/05/03 08:24:25;;;;;;;4.70;1.30;;;12.30;99.90;;;;;;4890537;28;37421;-77
2023/05/03 08:26:51;;;;;;;4.90;1.45;;;12.30;99.90;;;;;;4901955;29;37930;-77
2023/05/03 08:29:17;;;;;;;4.05;1.50;;;12.50;99.90;;;;;;4901574;28;36451;-77
2023/05/03 08:34:31;;;;;;;5.47;1.50;;;12.70;99.90;;;;;;5479220;23;20055;-77
2023/05/03 08:36:58;;;;;;;3.97;1.50;;;12.60;99.90;;;;;;4901101;28;37008;-77
2023/05/03 08:39:30;;;;;;;5.05;1.65;;;12.50;99.90;;;;;;4890943;28;37403;-77
2023/05/03 08:41:57;;;;;;;5.30;2.05;;;12.60;99.90;;;;;;4908075;28;39784;-81
2023/05/03 08:44:27;;;;;;;6.10;2.30;;;12.30;99.90;;;;;;4895762;28;37064;-78
2023/05/03 08:46:53;;;;;;;5.55;1.85;;;12.40;99.90;;;;;;4929974;28;37438;-77
2023/05/03 08:49:20;;;;;;;7.43;1.65;;;12.50;99.90;;;;;;4913090;28;36183;-78
2023/05/03 08:51:48;;;;;;;4.82;1.40;;;12.50;99.90;;;;;;4911787;28;38824;-80
2023/05/03 08:54:20;;;;;;;4.10;1.60;;;12.90;99.90;;;;;;4915025;28;38193;-79
2023/05/03 08:56:49;;;;;;;4.40;1.30;;;12.80;99.90;;;;;;4910152;28;37961;-78
2023/05/03 08:59:16;;;;;;;7.40;1.92;;;13.00;99.90;;;;;;4928961;28;39041;-78
2023/05/03 09:01:42;;;;;;;2.72;1.55;;;13.20;99.90;;;;;;4915360;28;38005;-77
2023/05/03 09:04:10;;;;;;;8.40;2.25;;;12.80;99.90;;;;;;4916716;28;37283;-77
2023/05/03 09:06:37;;;;;;;4.45;1.88;;;13.00;99.90;;;;;;4921064;28;38285;-76
2023/05/03 09:09:07;;;;;;;6.05;2.35;;;13.10;99.90;;;;;;4938430;28;36862;-77
2023/05/03 09:11:34;;;;;;;3.22;1.83;;;13.30;99.90;;;;;;4925438;28;39720;-77
2023/05/03 09:14:16;;;;;;;5.20;1.90;;;13.60;99.90;;;;;;4919950;28;38470;-76
2023/05/03 09:16:44;;;;;;;6.65;2.30;;;13.40;99.90;;;;;;4921764;28;49102;-76
2023/05/03 09:19:12;;;;;;;4.72;1.90;;;13.40;99.90;;;;;;4922477;28;37584;-76
2023/05/03 09:21:39;;;;;;;5.82;1.98;;;13.40;99.90;;;;;;4923208;28;40614;-76
2023/05/03 09:24:19;;;;;;;9.80;2.30;;;13.50;99.90;;;;;;4921609;28;38857;-76
2023/05/03 09:26:47;;;;;;;5.93;2.08;;;13.70;99.90;;;;;;4924772;28;38748;-76
2023/05/03 09:29:27;;;;;;;7.50;2.22;;;14.10;99.90;;;;;;4933767;28;36907;-76
2023/05/03 09:31:59;;;;;;;5.72;1.98;;;14.30;99.90;;;;;;4923524;28;37879;-77
2023/05/03 09:34:25;;;;;;;4.23;1.93;;;14.10;99.90;;;;;;4935497;28;38357;-77
2023/05/03 09:36:51;;;;;;;5.88;2.00;;;14.00;99.90;;;;;;4936211;28;37563;-80
2023/05/03 09:39:18;;;;;;;5.65;2.25;;;14.50;99.90;;;;;;4921379;28;36208;-78
2023/05/03 09:41:45;;;;;;;5.57;2.58;;;14.10;99.90;;;;;;4916163;28;37655;-78
2023/05/03 09:44:11;;;;;;;3.78;1.90;;;14.00;99.90;;;;;;4914608;28;37571;-78
2023/05/03 09:46:38;;;;;;;5.78;1.90;;;14.70;99.90;;;;;;4910341;28;38269;-79
2023/05/03 09:49:07;;;;;;;7.75;2.25;;;14.80;99.90;;;;;;4912390;28;36434;-78
2023/05/03 09:51:33;;;;;;;4.47;2.00;;;14.60;99.90;;;;;;4936217;28;40014;-81
2023/05/03 09:54:00;;;;;;;4.90;2.15;;;14.80;99.90;;;;;;4922842;28;37380;-78
2023/05/03 09:56:26;;;;;;;5.20;2.33;;;15.00;99.90;;;;;;4910910;28;39057;-78
2023/05/03 09:58:53;;;;;;;4.13;1.90;;;14.90;99.90;;;;;;4925427;28;35930;-77
2023/05/03 10:01:26;;;;;;;4.80;2.03;;;14.90;99.90;;;;;;4925555;28;37763;-77
2023/05/03 10:03:57;;;;;;;5.90;2.13;;;14.80;99.90;;;;;;4911774;28;37698;-75
2023/05/03 10:06:40;;;;;;;7.63;2.38;;;15.00;99.90;;;;;;4906708;28;39309;-80
2023/05/03 10:09:28;;;;;;;7.50;2.20;;;14.80;99.90;;;;;;4931361;28;37480;-80
2023/05/03 10:11:57;;;;;;;5.93;2.33;;;14.70;99.90;;;;;;4911989;28;39159;-80
2023/05/03 10:14:25;;;;;;;7.30;2.47;;;15.20;99.90;;;;;;4913456;28;38019;-78
2023/05/03 10:16:58;;;;;;;9.10;2.38;;;14.90;99.90;;;;;;4915159;28;36966;-79
2023/05/03 10:19:36;;;;;;;8.13;2.70;;;15.30;99.90;;;;;;4919258;28;38370;-78
2023/05/03 10:22:07;;;;;;;6.72;2.50;;;15.40;99.90;;;;;;4923206;28;38238;-77
2023/05/03 10:24:35;;;;;;;5.75;2.40;;;15.40;99.90;;;;;;4919659;28;39734;-80
2023/05/03 10:27:05;;;;;;;4.88;2.25;;;15.20;99.90;;;;;;4911976;28;37838;-79
2023/05/03 10:29:50;;;;;;;5.93;2.80;;;15.60;99.90;;;;;;4929233;28;48160;-77
2023/05/03 10:32:39;;;;;;;5.20;2.60;;;15.60;99.90;;;;;;4929404;28;38297;-78
2023/05/03 10:35:13;;;;;;;6.05;2.33;;;15.70;99.90;;;;;;4921926;28;37681;-80
2023/05/03 10:37:41;;;;;;;7.87;2.60;;;15.60;99.90;;;;;;4912700;28;36638;-79
2023/05/03 10:40:10;;;;;;;6.03;2.40;;;16.00;99.90;;;;;;4914371;28;37209;-79
2023/05/03 10:42:38;;;;;;;8.55;2.40;;;16.40;99.90;;;;;;4912106;28;37684;-79
2023/05/03 10:45:07;;;;;;;8.43;2.67;;;16.70;99.90;;;;;;4907593;28;37432;-76
2023/05/03 10:47:34;;;;;;;5.20;2.25;;;16.50;99.90;;;;;;4903824;28;47375;-87
2023/05/03 10:50:15;;;;;;;8.10;2.70;;;16.00;99.90;;;;;;4908712;28;36588;-78
2023/05/03 10:52:41;;;;;;;6.32;2.53;;;15.90;99.90;;;;;;4934244;28;48352;-79
2023/05/03 10:55:19;;;;;;;4.57;2.60;;;16.10;99.90;;;;;;4929610;28;40300;-78
2023/05/03 10:57:47;;;;;;;6.88;2.70;;;16.10;99.90;;;;;;4929042;28;37465;-80
2023/05/03 11:00:21;;;;;;;5.57;2.58;;;15.60;99.90;;;;;;4926372;28;37289;-79
2023/05/03 11:03:22;;;;;;;8.35;3.08;;;16.00;99.90;;;;;;4916992;28;48022;-79
2023/05/03 11:05:48;;;;;;;5.25;2.53;;;16.70;99.90;;;;;;4912735;28;47259;-78
2023/05/03 11:08:17;;;;;;;7.03;2.58;;;16.30;99.90;;;;;;4919119;28;37857;-79
2023/05/03 11:10:45;;;;;;;5.72;2.50;;;16.70;99.90;;;;;;4887105;28;37739;-78
2023/05/03 11:13:12;;;;;;;5.15;2.85;;;17.20;99.90;;;;;;4897653;28;38304;-77
2023/05/03 11:15:39;;;;;;;5.72;2.83;;;17.30;99.90;;;;;;4918817;28;38190;-77
2023/05/03 11:18:11;;;;;;;4.93;2.58;;;16.90;99.90;;;;;;4913644;28;37974;-78
2023/05/03 11:20:38;;;;;;;6.00;2.60;;;16.60;99.90;;;;;;4904009;28;37836;-81
2023/05/03 11:23:08;;;;;;;5.90;3.00;;;16.40;99.90;;;;;;4913071;28;37667;-80
2023/05/03 11:25:35;;;;;;;7.50;3.00;;;16.20;99.90;;;;;;4914005;28;38855;-79
2023/05/03 11:28:05;;;;;;;6.00;3.22;;;16.10;99.90;;;;;;4911056;28;38617;-80
2023/05/03 11:30:36;;;;;;;8.18;2.85;;;16.40;99.90;;;;;;4923719;28;36201;-78
2023/05/03 11:33:03;;;;;;;4.68;2.72;;;16.70;99.90;;;;;;4914809;28;37730;-79
2023/05/03 11:35:30;;;;;;;5.15;2.55;;;16.70;99.90;;;;;;4915504;28;37458;-75
2023/05/03 11:37:57;;;;;;;8.57;2.85;;;17.10;99.90;;;;;;4920820;28;38240;-78
2023/05/03 11:40:23;;;;;;;4.85;2.60;;;17.10;99.90;;;;;;4910083;28;38951;-76
2023/05/03 11:42:54;;;;;;;6.50;2.60;;;17.20;99.90;;;;;;4903953;28;36777;-76
2023/05/03 11:45:29;;;;;;;6.90;2.75;;;17.10;99.90;;;;;;4907886;28;37301;-76
2023/05/03 11:47:56;;;;;;;4.85;3.20;;;17.20;99.90;;;;;;4928259;28;37781;-76
2023/05/03 11:50:54;;;;;;;5.43;2.85;;;17.40;99.90;;;;;;4892775;28;36949;-76
2023/05/03 11:53:25;;;;;;;7.38;2.83;;;17.80;99.90;;;;;;4876983;28;37183;-75
2023/05/03 11:55:53;;;;;;;8.43;2.65;;;18.00;99.90;;;;;;4921785;28;39697;-75
2023/05/03 11:58:22;;;;;;;3.30;2.10;;;17.80;99.90;;;;;;4910113;28;36790;-75
2023/05/03 12:00:50;;;;;;;9.73;2.80;;;17.70;99.90;;;;;;4915764;28;36947;-75
2023/05/03 12:03:27;;;;;;;6.40;2.40;;;18.30;99.90;;;;;;4913739;28;39479;-74
2023/05/03 12:05:55;;;;;;;5.72;2.72;;;18.20;99.90;;;;;;4914335;28;37463;-76
2023/05/03 12:08:28;;;;;;;6.45;2.20;;;17.30;99.90;;;;;;4928784;28;36875;-75
2023/05/03 12:10:54;;;;;;;7.85;2.65;;;17.60;99.90;;;;;;4918197;28;36806;-74
2023/05/03 12:13:34;;;;;;;5.28;2.60;;;18.50;99.90;;;;;;4909986;28;38567;-75
2023/05/03 12:16:02;;;;;;;6.82;2.72;;;18.10;99.90;;;;;;4927741;28;37704;-74
2023/05/03 12:18:45;;;;;;;8.50;2.50;;;17.80;99.90;;;;;;4935640;28;48807;-75
2023/05/03 12:21:14;;;;;;;5.95;2.58;;;18.00;99.90;;;;;;4905987;28;36514;-75
2023/05/03 12:23:40;;;;;;;5.43;2.45;;;18.40;99.90;;;;;;4908883;28;38937;-74
2023/05/03 12:26:07;;;;;;;10.00;2.50;;;17.80;99.90;;;;;;4906415;28;36768;-75
2023/05/03 12:28:33;;;;;;;6.10;2.83;;;17.70;99.90;;;;;;4922223;28;38417;-75
2023/05/03 12:30:59;;;;;;;4.05;2.60;;;18.10;99.90;;;;;;4922810;28;35610;-75
2023/05/03 12:33:25;;;;;;;8.20;2.80;;;18.30;99.90;;;;;;4924464;28;38347;-76
2023/05/03 12:35:52;;;;;;;6.82;2.88;;;18.30;99.90;;;;;;4933808;28;38240;-75
2023/05/03 12:38:18;;;;;;;4.47;1.77;;;18.20;99.90;;;;;;4915859;28;37781;-75
2023/05/03 12:40:45;;;;;;;5.68;2.33;;;18.40;99.90;;;;;;4921023;28;37901;-76
2023/05/03 12:43:11;;;;;;;5.57;3.30;;;18.20;99.90;;;;;;4905915;28;37639;-75
2023/05/03 12:45:37;;;;;;;9.35;2.60;;;18.20;99.90;;;;;;4918720;28;39649;-76
2023/05/03 12:48:04;;;;;;;8.13;3.22;;;18.20;99.90;;;;;;4922044;28;38048;-78
2023/05/03 12:50:31;;;;;;;6.18;2.85;;;17.80;99.90;;;;;;4922032;28;36558;-75
2023/05/03 12:52:57;;;;;;;4.63;2.83;;;18.00;99.90;;;;;;4920536;28;39429;-76
2023/05/03 12:55:23;;;;;;;5.00;2.50;;;18.20;99.90;;;;;;4930793;28;38651;-75
2023/05/03 12:57:49;;;;;;;5.40;2.33;;;18.30;99.90;;;;;;4934751;28;37749;-75
2023/05/03 13:00:19;;;;;;;12.50;2.92;;;18.70;99.90;;;;;;4920830;28;35935;-75
2023/05/03 13:02:45;;;;;;;5.47;2.75;;;18.70;99.90;;;;;;4929248;28;39449;-75
2023/05/03 13:05:12;;;;;;;11.98;3.30;;;18.90;99.90;;;;;;4915977;28;37350;-75
2023/05/03 13:07:39;;;;;;;10.75;2.80;;;18.70;99.90;;;;;;4931164;28;37417;-75
2023/05/03 13:10:06;;;;;;;7.97;3.00;;;18.60;99.90;;;;;;4929458;28;36258;-75
2023/05/03 13:12:32;;;;;;;7.63;2.80;;;18.70;99.90;;;;;;4934576;28;38907;-75
2023/05/03 13:15:01;;;;;;;5.47;2.60;;;18.50;99.90;;;;;;4938148;28;39190;-74
2023/05/03 13:17:27;;;;;;;3.78;2.53;;;18.60;99.90;;;;;;4933203;28;37759;-75
2023/05/03 13:19:53;;;;;;;6.28;2.63;;;18.50;99.90;;;;;;4936869;28;36973;-75
2023/05/03 13:22:19;;;;;;;6.50;2.53;;;18.90;99.90;;;;;;4912821;28;40637;-75